createdAt,value
2024-04-24T01:55:37.928Z,6.40
2024-04-24T01:58:09.413Z,6.40
2024-04-24T02:00:41.939Z,6.40
2024-04-24T02:03:11.896Z,6.30
2024-04-24T02:05:41.924Z,6.30
2024-04-24T02:08:12.212Z,6.30
2024-04-24T02:10:47.330Z,6.40
2024-04-24T02:13:17.543Z,6.30
2024-04-24T02:15:47.530Z,6.30
2024-04-24T02:18:17.878Z,6.20
2024-04-24T02:20:50.932Z,6.30
2024-04-24T02:23:22.047Z,6.30
2024-04-24T02:25:54.894Z,6.30
2024-04-24T02:28:25.010Z,6.30
2024-04-24T02:30:55.124Z,6.50
2024-04-24T02:33:25.476Z,6.20
2024-04-24T02:35:55.537Z,6.20
2024-04-24T02:38:22.976Z,6.20
2024-04-24T02:40:55.687Z,6.10
2024-04-24T02:43:25.677Z,6.20
2024-04-24T02:45:55.938Z,6.10
2024-04-24T02:48:28.269Z,6.20
2024-04-24T02:50:58.353Z,6.10
2024-04-24T02:53:28.513Z,6.10
2024-04-24T02:56:01.372Z,6.10
2024-04-24T02:58:31.331Z,6.30
2024-04-24T03:01:01.416Z,6.10
2024-04-24T03:03:31.615Z,6.10
2024-04-24T03:06:01.694Z,6.40
2024-04-24T03:08:31.932Z,6.10
2024-04-24T03:11:05.926Z,6.10
2024-04-24T03:13:36.118Z,6.20
2024-04-24T03:16:06.416Z,6.20
2024-04-24T03:18:36.596Z,6.20
2024-04-24T03:21:07.201Z,6.20
2024-04-24T03:23:37.267Z,6.30
2024-04-24T03:26:12.435Z,6.30
2024-04-24T03:28:42.459Z,6.30
2024-04-24T03:31:12.563Z,6.30
2024-04-24T03:33:42.593Z,6.20
2024-04-24T03:36:12.701Z,6.30
2024-04-24T03:38:42.761Z,6.30
2024-04-24T03:41:15.945Z,6.30
2024-04-24T03:43:46.494Z,6.30
2024-04-24T03:46:16.561Z,6.20
2024-04-24T03:48:46.750Z,6.20
2024-04-24T03:51:16.810Z,6.20
2024-04-24T03:53:46.769Z,6.30
2024-04-24T03:56:19.620Z,6.20
2024-04-24T03:58:49.714Z,6.20
2024-04-24T04:01:29.232Z,6.20
2024-04-24T04:04:02.570Z,6.20
2024-04-24T04:06:33.621Z,6.20
2024-04-24T04:09:03.995Z,6.40
2024-04-24T04:11:36.796Z,6.10
2024-04-24T04:14:06.811Z,6.20
2024-04-24T04:16:59.311Z,6.10
2024-04-24T04:19:42.874Z,6.20
2024-04-24T04:22:13.207Z,6.20
2024-04-24T04:24:43.394Z,6.20
2024-04-24T04:27:16.182Z,6.20
2024-04-24T04:29:46.238Z,6.20
2024-04-24T04:32:16.768Z,6.20
2024-04-24T04:34:47.989Z,6.20
2024-04-24T04:37:18.485Z,6.30
2024-04-24T04:39:48.949Z,6.30
2024-04-24T04:42:21.822Z,6.30
2024-04-24T04:44:51.794Z,6.50
2024-04-24T04:47:21.938Z,6.30
2024-04-24T04:49:51.947Z,6.60
2024-04-24T04:52:21.765Z,6.40
2024-04-24T04:54:51.771Z,6.60
2024-04-24T04:57:24.475Z,6.50
2024-04-24T04:59:57.337Z,6.50
2024-04-24T05:02:29.101Z,6.60
2024-04-24T05:05:11.808Z,6.60
2024-04-24T05:07:41.910Z,6.70
2024-04-24T05:10:12.021Z,6.90
2024-04-24T05:12:44.773Z,6.90
2024-04-24T05:15:14.856Z,7.00
2024-04-24T05:17:45.066Z,7.10
2024-04-24T05:20:17.170Z,7.30
2024-04-24T05:22:55.068Z,7.20
2024-04-24T05:25:38.342Z,7.30
2024-04-24T05:28:29.205Z,7.30
2024-04-24T05:30:59.496Z,7.50
2024-04-24T05:33:29.609Z,7.50
2024-04-24T05:35:59.699Z,7.60
2024-04-24T05:38:29.754Z,7.60
2024-04-24T05:40:59.801Z,7.60
2024-04-24T05:43:37.354Z,7.80
2024-04-24T05:46:09.495Z,7.70
2024-04-24T05:48:39.615Z,7.70
2024-04-24T05:51:10.050Z,7.90
2024-04-24T05:53:42.540Z,7.80
2024-04-24T05:56:15.259Z,7.90
2024-04-24T05:58:48.256Z,8.00
2024-04-24T06:01:18.526Z,8.00
2024-04-24T06:03:48.594Z,8.10
2024-04-24T06:06:18.518Z,8.20
2024-04-24T06:08:48.519Z,8.30
2024-04-24T06:11:20.974Z,8.40
2024-04-24T06:13:53.654Z,8.40
2024-04-24T06:16:26.038Z,8.60
2024-04-24T06:18:58.491Z,8.50
2024-04-24T06:21:30.126Z,8.60
2024-04-24T06:24:00.103Z,8.90
2024-04-24T06:26:30.208Z,8.70
2024-04-24T06:29:03.118Z,8.80
2024-04-24T06:31:33.170Z,8.80
2024-04-24T06:34:03.194Z,8.90
2024-04-24T06:36:33.473Z,9.00
2024-04-24T06:39:05.069Z,9.10
2024-04-24T06:41:35.079Z,9.20
2024-04-24T06:44:08.515Z,9.30
2024-04-24T06:46:38.691Z,9.30
2024-04-24T06:49:08.770Z,9.40
2024-04-24T06:51:38.795Z,9.50
2024-04-24T06:54:08.869Z,9.50
2024-04-24T06:56:40.567Z,9.60
2024-04-24T06:59:13.418Z,9.80
2024-04-24T07:01:43.839Z,9.80
2024-04-24T07:04:13.960Z,9.90
2024-04-24T07:06:46.342Z,9.90
2024-04-24T07:09:16.398Z,10.00
2024-04-24T07:11:46.391Z,10.10
2024-04-24T07:14:19.172Z,10.20
2024-04-24T07:16:51.820Z,10.20
2024-04-24T07:19:21.906Z,10.30
2024-04-24T07:21:54.442Z,10.30
2024-04-24T07:24:24.525Z,10.30
2024-04-24T07:26:54.613Z,10.30
2024-04-24T07:29:27.315Z,10.40
2024-04-24T07:31:57.352Z,10.50
2024-04-24T07:34:27.372Z,10.60
2024-04-24T07:36:57.378Z,10.70
2024-04-24T07:39:29.970Z,10.90
2024-04-24T07:42:02.258Z,11.00
2024-04-24T07:44:35.231Z,11.10
2024-04-24T07:47:23.862Z,11.10
2024-04-24T07:49:54.421Z,11.30
2024-04-24T07:52:24.415Z,11.40
2024-04-24T07:54:54.427Z,11.40
2024-04-24T07:57:24.502Z,11.50
2024-04-24T07:59:57.218Z,11.70
2024-04-24T08:02:27.288Z,11.90
2024-04-24T08:04:59.827Z,12.00
2024-04-24T08:07:29.823Z,12.20
2024-04-24T08:09:59.890Z,12.40
2024-04-24T08:12:29.974Z,12.50
2024-04-24T08:15:02.745Z,12.70
2024-04-24T08:17:32.942Z,12.90
2024-04-24T08:20:05.335Z,13.10
2024-04-24T08:22:35.454Z,13.30
2024-04-24T08:25:05.501Z,13.50
2024-04-24T08:27:35.680Z,13.70
2024-04-24T08:30:09.414Z,13.90
2024-04-24T08:32:39.582Z,14.10
2024-04-24T08:35:09.967Z,14.30
2024-04-24T08:37:48.374Z,14.50
2024-04-24T08:40:21.685Z,14.60
2024-04-24T08:42:51.887Z,14.70
2024-04-24T08:45:25.112Z,14.60
2024-04-24T08:47:55.365Z,14.60
2024-04-24T08:50:26.426Z,14.60
2024-04-24T08:53:01.673Z,14.70
2024-04-24T08:55:32.749Z,14.70
2024-04-24T08:58:03.534Z,14.80
2024-04-24T09:00:39.201Z,14.90
2024-04-24T09:03:20.771Z,15.00
2024-04-24T09:05:53.267Z,15.00
2024-04-24T09:08:24.722Z,15.20
2024-04-24T09:10:54.829Z,15.20
2024-04-24T09:13:25.790Z,15.10
2024-04-24T09:16:03.115Z,15.00
2024-04-24T09:18:33.543Z,15.10
2024-04-24T09:21:04.655Z,15.20
2024-04-24T09:23:34.781Z,15.30
2024-04-24T09:26:05.654Z,15.30
2024-04-24T09:28:35.566Z,15.30
2024-04-24T09:31:10.204Z,15.20
2024-04-24T09:33:40.335Z,15.00
2024-04-24T09:36:10.703Z,14.80
2024-04-24T09:38:41.961Z,14.50
2024-04-24T09:41:14.612Z,14.30
2024-04-24T09:43:44.677Z,14.10
2024-04-24T09:46:19.472Z,14.00
2024-04-24T09:48:49.528Z,13.90
2024-04-24T09:51:22.273Z,13.90
2024-04-24T09:53:52.303Z,13.80
2024-04-24T09:56:26.111Z,13.80
2024-04-24T09:58:59.023Z,13.70
2024-04-24T10:01:33.360Z,13.70
2024-04-24T10:04:07.329Z,13.70
2024-04-24T10:06:39.470Z,13.70
2024-04-24T10:09:10.399Z,13.70
2024-04-24T10:11:48.273Z,13.70
2024-04-24T10:14:22.769Z,13.80
2024-04-24T10:16:56.757Z,13.70
2024-04-24T10:19:27.255Z,13.90
2024-04-24T10:22:00.235Z,14.10
2024-04-24T10:24:30.645Z,14.30
2024-04-24T10:27:02.078Z,14.60
2024-04-24T10:29:34.200Z,14.80
2024-04-24T10:32:08.790Z,15.00
2024-04-24T10:34:39.494Z,15.20
2024-04-24T10:37:11.903Z,15.20
2024-04-24T10:39:46.009Z,15.20
2024-04-24T10:42:16.581Z,15.00
2024-04-24T10:44:47.541Z,14.80
2024-04-24T10:47:21.440Z,14.70
2024-04-24T10:49:58.815Z,14.40
2024-04-24T10:52:29.360Z,14.20
2024-04-24T10:55:12.635Z,14.10
2024-04-24T10:57:49.317Z,13.90
2024-04-24T11:00:20.479Z,13.70
2024-04-24T11:02:59.161Z,13.50
2024-04-24T11:05:36.174Z,13.20
2024-04-24T11:08:08.678Z,12.90
2024-04-24T11:10:38.690Z,12.40
2024-04-24T11:13:17.834Z,11.90
2024-04-24T11:15:58.257Z,11.60
2024-04-24T11:18:37.120Z,11.30
2024-04-24T11:21:07.474Z,11.10
2024-04-24T11:23:37.586Z,11.40
2024-04-24T11:26:07.751Z,11.70
2024-04-24T11:28:37.833Z,12.10
2024-04-24T11:31:10.498Z,12.50
2024-04-24T11:33:45.994Z,12.80
2024-04-24T11:36:17.535Z,13.10
2024-04-24T11:38:47.720Z,13.40
2024-04-24T11:44:10.601Z,14.50
2024-04-24T11:46:55.378Z,15.40
2024-04-24T12:05:39.197Z,16.60
2024-04-24T12:08:27.515Z,16.70
2024-04-24T14:05:45.592Z,14.60
2024-04-24T14:26:41.869Z,14.40
2024-04-24T14:29:14.980Z,14.30
2024-04-24T14:31:45.449Z,14.30
2024-04-24T14:34:15.615Z,14.30
2024-04-24T14:36:45.718Z,14.30
2024-04-24T14:39:15.874Z,14.30
2024-04-24T14:41:48.537Z,14.30
2024-04-24T14:44:18.518Z,14.50
2024-04-24T14:46:49.887Z,14.90
2024-04-24T14:49:20.085Z,15.20
2024-04-24T14:51:50.550Z,15.20
2024-04-24T14:54:20.735Z,15.10
2024-04-24T14:56:53.482Z,15.10
2024-04-24T14:59:23.514Z,15.00
2024-04-24T15:01:53.898Z,15.00
2024-04-24T15:04:24.090Z,14.90
2024-04-24T15:07:08.168Z,14.90
2024-04-24T15:09:38.823Z,14.80
2024-04-24T15:12:17.010Z,14.70
2024-04-24T15:14:47.308Z,14.60
2024-04-24T15:17:17.372Z,14.40
2024-04-24T15:19:47.656Z,14.20
2024-04-24T15:22:17.990Z,14.10
2024-04-24T15:24:48.246Z,14.10
2024-04-24T15:27:21.061Z,14.20
2024-04-24T15:29:51.271Z,14.30
2024-04-24T15:32:21.515Z,14.40
2024-04-24T15:45:22.971Z,14.30
2024-04-24T15:47:53.143Z,14.40
2024-04-24T15:50:23.337Z,14.50
2024-04-24T15:52:53.382Z,15.00
2024-04-24T16:05:52.376Z,16.90
2024-04-24T16:08:22.654Z,17.00
2024-04-24T16:43:36.871Z,16.90
2024-04-24T16:46:07.297Z,17.20
2024-04-24T16:48:37.525Z,17.10
2024-04-24T16:51:10.944Z,16.80
2024-04-24T16:53:41.335Z,16.50
2024-04-24T16:56:47.646Z,16.20
2024-04-24T16:59:41.419Z,15.90
2024-04-24T17:05:29.159Z,15.20
2024-04-24T17:07:59.484Z,15.00
2024-04-24T17:14:06.312Z,15.10
2024-04-24T17:16:39.346Z,15.20
2024-04-24T17:19:09.793Z,15.30
2024-04-24T17:21:52.415Z,15.40
2024-04-24T17:24:19.842Z,15.50
2024-04-24T17:26:50.306Z,15.50
2024-04-24T17:29:20.495Z,15.60
2024-04-24T17:31:53.830Z,15.70
2024-04-24T17:34:24.883Z,15.60
2024-04-24T17:36:56.199Z,15.60
2024-04-24T17:39:28.729Z,15.60
2024-04-24T17:42:00.999Z,15.40
2024-04-24T17:58:24.708Z,13.30
2024-04-24T18:12:01.243Z,12.80
2024-04-24T18:15:28.284Z,12.10
2024-04-24T18:18:02.224Z,11.80
2024-04-24T18:24:25.926Z,11.40
2024-04-24T18:27:32.223Z,11.30
2024-04-24T18:30:08.029Z,11.20
2024-04-24T18:35:58.688Z,10.90
2024-04-24T18:46:37.531Z,10.50
2024-04-24T18:58:56.553Z,9.90
2024-04-24T19:49:13.304Z,8.40
2024-04-24T20:45:03.640Z,8.10
2024-04-24T23:53:03.243Z,6.30
2024-04-24T23:55:33.282Z,6.30
2024-04-24T23:58:03.278Z,6.30
